Aviation Digital Data Service (ADDS)

Output produced by METARs form (1348 UTC 19 April 2018)
found at http://aviationweather.gov/adds/metars/
 
KSBY 191302Z 1913/2012 31011KT P6SM VCSH BKN070 
     FM191500 30013G20KT P6SM VCSH BKN040 
     FM191800 30019G30KT P6SM BKN040 
     FM192200 32017G27KT P6SM SCT060 
     FM200000 31012KT P6SM SCT100